Pagrindinis puslapis
METAR-TAF:

METAR-TAF

Oro uostai :

Gardinas, Baltarusija

platuma: 53-36-06N, ilguma: 024-03-18E, Aukštis: 135 m

Dabartinis oras

Ataskaita buvo paskelbta 3 valandos ir 18 minutes, ne 14:00 UTC
Vėjas 12 kt iš Rytų su gūsio iki 17 kt
Temperatūra 4°C
Drėgmė 81%
Slėgis 1028 hPa
Matomumas 10 km arba daugiau
Su prošvaistėmis ne aukštis 1200 ft
Apsiniaukę ne aukštis 2300 ft

METAR: UMMG 191400Z 08006G09MPS 9999 BKN012 OVC023 04/01 Q1028 NOSIG

Laikas: 20:18 (17:18 UTC)

Prognozė

Ataskaita buvo paskelbta 3 valandos ir 18 minutes, ne 14:00 UTC
Prognozė galioja nuo 19 metu 15 UTC su 19 metu 24 UTC
Vėjas 12 kt iš Rytų su gūsio iki 21 kt
Matomumas: 8000 m
Su prošvaistėmis ne aukštis 700 ft
Su prošvaistėmis ne aukštis 1200 ft, Liūtiniai kamuoliniai debesys.
Laikinai
nuo 19 metu 15 UTC su 19 metu 20 UTC
Matomumas: 2100 m
Su prošvaistėmis ne aukštis 500 ft
lietus, sniegas

TAF: UMMG 191400Z 1915/1924 08006G11MPS 8000 BKN007 BKN012CB TEMPO 1915/1920 2100 -SHRASN BKN005

Orai ataskaitas ir orų prognozės (METAR, TAF).

turimą stotys yra geltonos ir raudonos taškus žemėlapyje.

Perkelti pele per norėdami pamatyti stoties vardą.

Tada spustelėkite, norėdami matyti oro stebėjimo ir prognozės.

Norėdami pakeisti žemėlapį: spustelėkite ant žalios mygtukų su juodo kryžiaus žemyn,; žalią mygtuką su brūkšneliu, jei norite nutolinti; arba žalių rodyklių gretimoms žemėlapius.


METAR-TAF: